sensor_id;sensor_type;location;lat;lon;timestamp;P1;durP1;ratioP1;P2;durP2;ratioP2
20984;SDS011;10651;47.552;7.606;2023-03-05T06:21:30;77.77;;;35.27;;
20984;SDS011;10651;47.552;7.606;2023-03-05T06:23:57;82.63;;;36.07;;
20984;SDS011;10651;47.552;7.606;2023-03-05T06:26:23;84.17;;;35.83;;
20984;SDS011;10651;47.552;7.606;2023-03-05T06:28:49;93.30;;;38.27;;
20984;SDS011;10651;47.552;7.606;2023-03-05T06:31:17;78.13;;;35.13;;
20984;SDS011;10651;47.552;7.606;2023-03-05T06:33:48;83.50;;;35.87;;
20984;SDS011;10651;47.552;7.606;2023-03-05T06:36:15;81.13;;;34.40;;
20984;SDS011;10651;47.552;7.606;2023-03-05T06:38:42;80.40;;;35.67;;
20984;SDS011;10651;47.552;7.606;2023-03-05T06:41:09;83.93;;;37.17;;
20984;SDS011;10651;47.552;7.606;2023-03-05T06:43:37;86.23;;;33.67;;
20984;SDS011;10651;47.552;7.606;2023-03-05T06:46:10;90.97;;;38.33;;
20984;SDS011;10651;47.552;7.606;2023-03-05T06:48:38;84.40;;;37.47;;
20984;SDS011;10651;47.552;7.606;2023-03-05T06:51:10;81.67;;;35.93;;
20984;SDS011;10651;47.552;7.606;2023-03-05T06:53:40;78.63;;;34.43;;
20984;SDS011;10651;47.552;7.606;2023-03-05T06:56:06;91.43;;;44.75;;
20984;SDS011;10651;47.552;7.606;2023-03-05T06:58:32;84.20;;;38.63;;
20984;SDS011;10651;47.552;7.606;2023-03-05T07:01:03;86.83;;;37.30;;
20984;SDS011;10651;47.552;7.606;2023-03-05T07:03:30;79.87;;;37.40;;
20984;SDS011;10651;47.552;7.606;2023-03-05T07:05:56;91.83;;;39.87;;
20984;SDS011;10651;47.552;7.606;2023-03-05T07:08:22;85.07;;;39.27;;
20984;SDS011;10651;47.552;7.606;2023-03-05T07:10:47;87.63;;;36.43;;
20984;SDS011;10651;47.552;7.606;2023-03-05T07:13:13;91.90;;;37.73;;
20984;SDS011;10651;47.552;7.606;2023-03-05T07:15:39;92.00;;;40.83;;
20984;SDS011;10651;47.552;7.606;2023-03-05T07:18:07;84.13;;;36.70;;
20984;SDS011;10651;47.552;7.606;2023-03-05T07:20:36;84.40;;;38.60;;
20984;SDS011;10651;47.552;7.606;2023-03-05T07:23:05;79.47;;;35.53;;
20984;SDS011;10651;47.552;7.606;2023-03-05T07:25:30;89.37;;;37.80;;
20984;SDS011;10651;47.552;7.606;2023-03-05T07:27:56;73.83;;;33.50;;
20984;SDS011;10651;47.552;7.606;2023-03-05T07:30:22;78.90;;;35.67;;
20984;SDS011;10651;47.552;7.606;2023-03-05T07:32:48;82.97;;;36.70;;
20984;SDS011;10651;47.552;7.606;2023-03-05T07:35:14;91.13;;;38.23;;
20984;SDS011;10651;47.552;7.606;2023-03-05T07:37:39;90.13;;;39.03;;
20984;SDS011;10651;47.552;7.606;2023-03-05T07:50:18;83.83;;;35.57;;
20984;SDS011;10651;47.552;7.606;2023-03-05T07:52:44;87.60;;;35.67;;
20984;SDS011;10651;47.552;7.606;2023-03-05T07:55:11;83.63;;;37.20;;
20984;SDS011;10651;47.552;7.606;2023-03-05T07:57:37;89.00;;;35.50;;
20984;SDS011;10651;47.552;7.606;2023-03-05T08:00:03;87.07;;;35.23;;
20984;SDS011;10651;47.552;7.606;2023-03-05T08:02:29;81.17;;;34.63;;
20984;SDS011;10651;47.552;7.606;2023-03-05T08:04:55;86.77;;;37.87;;
20984;SDS011;10651;47.552;7.606;2023-03-05T08:07:21;85.03;;;35.43;;
20984;SDS011;10651;47.552;7.606;2023-03-05T08:09:46;93.00;;;34.83;;
20984;SDS011;10651;47.552;7.606;2023-03-05T08:12:12;83.37;;;37.90;;
20984;SDS011;10651;47.552;7.606;2023-03-05T08:14:38;84.47;;;38.97;;
20984;SDS011;10651;47.552;7.606;2023-03-05T08:17:04;88.67;;;36.77;;
20984;SDS011;10651;47.552;7.606;2023-03-05T08:19:30;89.07;;;39.03;;
20984;SDS011;10651;47.552;7.606;2023-03-05T08:21:57;83.10;;;36.40;;
20984;SDS011;10651;47.552;7.606;2023-03-05T08:24:22;80.77;;;38.87;;
20984;SDS011;10651;47.552;7.606;2023-03-05T08:26:53;75.53;;;35.83;;
20984;SDS011;10651;47.552;7.606;2023-03-05T08:29:20;88.13;;;37.37;;
20984;SDS011;10651;47.552;7.606;2023-03-05T08:31:46;86.63;;;39.13;;
20984;SDS011;10651;47.552;7.606;2023-03-05T08:34:12;82.10;;;35.53;;
20984;SDS011;10651;47.552;7.606;2023-03-05T08:36:38;88.57;;;35.87;;
20984;SDS011;10651;47.552;7.606;2023-03-05T08:39:03;91.67;;;36.07;;
20984;SDS011;10651;47.552;7.606;2023-03-05T08:41:31;87.53;;;37.70;;
20984;SDS011;10651;47.552;7.606;2023-03-05T08:43:57;80.30;;;37.47;;
20984;SDS011;10651;47.552;7.606;2023-03-05T08:46:22;90.27;;;41.43;;
20984;SDS011;10651;47.552;7.606;2023-03-05T08:48:48;89.25;;;39.47;;
20984;SDS011;10651;47.552;7.606;2023-03-05T08:51:15;90.72;;;40.03;;
20984;SDS011;10651;47.552;7.606;2023-03-05T08:53:43;95.63;;;40.85;;
20984;SDS011;10651;47.552;7.606;2023-03-05T08:56:09;83.72;;;38.85;;
20984;SDS011;10651;47.552;7.606;2023-03-05T08:58:36;79.15;;;37.47;;
20984;SDS011;10651;47.552;7.606;2023-03-05T09:01:02;87.05;;;39.28;;
20984;SDS011;10651;47.552;7.606;2023-03-05T09:03:28;88.72;;;38.95;;
20984;SDS011;10651;47.552;7.606;2023-03-05T09:05:57;87.25;;;37.75;;
20984;SDS011;10651;47.552;7.606;2023-03-05T09:08:27;90.03;;;39.58;;
20984;SDS011;10651;47.552;7.606;2023-03-05T09:10:53;92.28;;;38.15;;
20984;SDS011;10651;47.552;7.606;2023-03-05T09:13:19;81.78;;;38.08;;
20984;SDS011;10651;47.552;7.606;2023-03-05T09:15:46;84.40;;;38.63;;
20984;SDS011;10651;47.552;7.606;2023-03-05T09:18:22;79.75;;;37.08;;
20984;SDS011;10651;47.552;7.606;2023-03-05T09:20:48;81.13;;;38.58;;
20984;SDS011;10651;47.552;7.606;2023-03-05T09:23:14;84.38;;;40.35;;
20984;SDS011;10651;47.552;7.606;2023-03-05T09:25:39;83.13;;;36.70;;
20984;SDS011;10651;47.552;7.606;2023-03-05T09:28:06;78.70;;;37.58;;
20984;SDS011;10651;47.552;7.606;2023-03-05T09:30:32;84.00;;;39.42;;
20984;SDS011;10651;47.552;7.606;2023-03-05T09:32:59;84.35;;;38.53;;
20984;SDS011;10651;47.552;7.606;2023-03-05T09:35:26;92.72;;;39.30;;
20984;SDS011;10651;47.552;7.606;2023-03-05T09:37:52;81.05;;;36.38;;
20984;SDS011;10651;47.552;7.606;2023-03-05T09:40:18;77.10;;;36.35;;
20984;SDS011;10651;47.552;7.606;2023-03-05T09:48:53;74.20;;;34.28;;
20984;SDS011;10651;47.552;7.606;2023-03-05T09:51:39;70.68;;;34.78;;
20984;SDS011;10651;47.552;7.606;2023-03-05T09:54:18;79.25;;;36.92;;
20984;SDS011;10651;47.552;7.606;2023-03-05T09:56:47;78.65;;;34.97;;
20984;SDS011;10651;47.552;7.606;2023-03-05T10:01:52;70.45;;;33.63;;
20984;SDS011;10651;47.552;7.606;2023-03-05T10:04:24;66.50;;;33.08;;
20984;SDS011;10651;47.552;7.606;2023-03-05T10:07:12;57.10;;;29.05;;
20984;SDS011;10651;47.552;7.606;2023-03-05T10:09:42;59.47;;;28.65;;
20984;SDS011;10651;47.552;7.606;2023-03-05T10:14:42;65.20;;;32.20;;
20984;SDS011;10651;47.552;7.606;2023-03-05T10:17:26;59.95;;;29.55;;
20984;SDS011;10651;47.552;7.606;2023-03-05T10:36:26;51.25;;;27.33;;
20984;SDS011;10651;47.552;7.606;2023-03-05T10:41:49;44.55;;;23.60;;
20984;SDS011;10651;47.552;7.606;2023-03-05T10:44:48;47.63;;;23.45;;
20984;SDS011;10651;47.552;7.606;2023-03-05T10:49:50;42.08;;;21.20;;
20984;SDS011;10651;47.552;7.606;2023-03-05T10:52:29;39.85;;;22.83;;
20984;SDS011;10651;47.552;7.606;2023-03-05T10:54:59;44.85;;;23.77;;
20984;SDS011;10651;47.552;7.606;2023-03-05T10:57:30;43.47;;;24.30;;
20984;SDS011;10651;47.552;7.606;2023-03-05T11:05:38;45.78;;;25.63;;
20984;SDS011;10651;47.552;7.606;2023-03-05T11:10:46;44.53;;;23.88;;
20984;SDS011;10651;47.552;7.606;2023-03-05T11:13:26;40.67;;;21.95;;
20984;SDS011;10651;47.552;7.606;2023-03-05T11:16:03;39.55;;;21.92;;
20984;SDS011;10651;47.552;7.606;2023-03-05T11:18:30;35.83;;;20.90;;
20984;SDS011;10651;47.552;7.606;2023-03-05T11:21:07;39.47;;;22.30;;
20984;SDS011;10651;47.552;7.606;2023-03-05T11:24:05;41.15;;;21.17;;
20984;SDS011;10651;47.552;7.606;2023-03-05T11:26:30;37.03;;;20.05;;
20984;SDS011;10651;47.552;7.606;2023-03-05T11:28:58;34.22;;;19.58;;
20984;SDS011;10651;47.552;7.606;2023-03-05T11:31:33;35.15;;;19.58;;
20984;SDS011;10651;47.552;7.606;2023-03-05T11:34:03;32.53;;;18.02;;
20984;SDS011;10651;47.552;7.606;2023-03-05T11:39:19;26.60;;;15.25;;
20984;SDS011;10651;47.552;7.606;2023-03-05T11:41:50;24.92;;;13.38;;
20984;SDS011;10651;47.552;7.606;2023-03-05T11:44:21;20.40;;;12.98;;
20984;SDS011;10651;47.552;7.606;2023-03-05T11:49:49;29.10;;;15.98;;
20984;SDS011;10651;47.552;7.606;2023-03-05T11:52:27;26.95;;;15.98;;
20984;SDS011;10651;47.552;7.606;2023-03-05T11:57:43;32.45;;;18.98;;
20984;SDS011;10651;47.552;7.606;2023-03-05T12:00:15;31.13;;;18.60;;
20984;SDS011;10651;47.552;7.606;2023-03-05T12:02:46;32.33;;;18.92;;
20984;SDS011;10651;47.552;7.606;2023-03-05T12:05:17;33.72;;;20.27;;
20984;SDS011;10651;47.552;7.606;2023-03-05T12:07:44;31.98;;;19.70;;
20984;SDS011;10651;47.552;7.606;2023-03-05T12:10:21;34.45;;;20.05;;
20984;SDS011;10651;47.552;7.606;2023-03-05T12:12:58;33.90;;;20.83;;
20984;SDS011;10651;47.552;7.606;2023-03-05T12:15:45;41.60;;;21.25;;
20984;SDS011;10651;47.552;7.606;2023-03-05T12:21:06;31.27;;;19.67;;
20984;SDS011;10651;47.552;7.606;2023-03-05T12:23:45;26.95;;;15.55;;
20984;SDS011;10651;47.552;7.606;2023-03-05T12:26:16;26.20;;;14.70;;
20984;SDS011;10651;47.552;7.606;2023-03-05T12:33:50;25.10;;;15.52;;
20984;SDS011;10651;47.552;7.606;2023-03-05T12:36:31;26.60;;;16.70;;
20984;SDS011;10651;47.552;7.606;2023-03-05T12:38:58;29.65;;;18.48;;
20984;SDS011;10651;47.552;7.606;2023-03-05T12:46:48;32.47;;;20.02;;
20984;SDS011;10651;47.552;7.606;2023-03-05T12:49:48;32.28;;;19.58;;
20984;SDS011;10651;47.552;7.606;2023-03-05T12:52:20;36.65;;;20.45;;
20984;SDS011;10651;47.552;7.606;2023-03-05T12:54:56;32.08;;;19.05;;
20984;SDS011;10651;47.552;7.606;2023-03-05T12:57:46;30.35;;;17.77;;
20984;SDS011;10651;47.552;7.606;2023-03-05T13:00:19;32.83;;;18.05;;
20984;SDS011;10651;47.552;7.606;2023-03-05T13:02:52;29.35;;;16.65;;
20984;SDS011;10651;47.552;7.606;2023-03-05T13:05:24;27.27;;;15.93;;
20984;SDS011;10651;47.552;7.606;2023-03-05T13:10:39;26.38;;;16.23;;
20984;SDS011;10651;47.552;7.606;2023-03-05T13:13:09;25.65;;;14.20;;
20984;SDS011;10651;47.552;7.606;2023-03-05T13:15:39;27.33;;;14.70;;
20984;SDS011;10651;47.552;7.606;2023-03-05T13:18:11;22.50;;;13.65;;
20984;SDS011;10651;47.552;7.606;2023-03-05T13:20:43;25.88;;;14.13;;
20984;SDS011;10651;47.552;7.606;2023-03-05T13:23:17;23.00;;;13.45;;
20984;SDS011;10651;47.552;7.606;2023-03-05T13:26:13;26.88;;;13.82;;
20984;SDS011;10651;47.552;7.606;2023-03-05T13:28:42;19.88;;;12.70;;
20984;SDS011;10651;47.552;7.606;2023-03-05T13:31:29;23.30;;;13.10;;
20984;SDS011;10651;47.552;7.606;2023-03-05T13:34:10;20.33;;;12.73;;
20984;SDS011;10651;47.552;7.606;2023-03-05T13:39:58;29.35;;;14.27;;
20984;SDS011;10651;47.552;7.606;2023-03-05T13:44:56;24.27;;;13.68;;
20984;SDS011;10651;47.552;7.606;2023-03-05T13:47:25;24.23;;;14.07;;
20984;SDS011;10651;47.552;7.606;2023-03-05T13:50:20;21.67;;;12.93;;
20984;SDS011;10651;47.552;7.606;2023-03-05T13:52:47;25.55;;;13.93;;
20984;SDS011;10651;47.552;7.606;2023-03-05T13:55:14;22.20;;;12.95;;
20984;SDS011;10651;47.552;7.606;2023-03-05T13:57:45;24.42;;;13.65;;
20984;SDS011;10651;47.552;7.606;2023-03-05T14:02:52;23.58;;;13.25;;
20984;SDS011;10651;47.552;7.606;2023-03-05T14:05:20;23.33;;;13.35;;
20984;SDS011;10651;47.552;7.606;2023-03-05T14:07:49;27.73;;;14.00;;
20984;SDS011;10651;47.552;7.606;2023-03-05T14:10:27;23.50;;;13.23;;
20984;SDS011;10651;47.552;7.606;2023-03-05T14:12:53;23.80;;;12.63;;
20984;SDS011;10651;47.552;7.606;2023-03-05T14:20:37;24.83;;;13.50;;
20984;SDS011;10651;47.552;7.606;2023-03-05T14:25:50;26.15;;;13.00;;
20984;SDS011;10651;47.552;7.606;2023-03-05T14:31:01;24.90;;;12.98;;
20984;SDS011;10651;47.552;7.606;2023-03-05T14:33:28;23.25;;;13.15;;
20984;SDS011;10651;47.552;7.606;2023-03-05T14:35:56;20.67;;;11.68;;
20984;SDS011;10651;47.552;7.606;2023-03-05T14:38:25;20.35;;;11.68;;
20984;SDS011;10651;47.552;7.606;2023-03-05T14:40:54;24.20;;;11.50;;
20984;SDS011;10651;47.552;7.606;2023-03-05T14:43:20;17.42;;;10.20;;
20984;SDS011;10651;47.552;7.606;2023-03-05T14:45:46;20.27;;;11.23;;
20984;SDS011;10651;47.552;7.606;2023-03-05T14:48:12;19.15;;;11.77;;
20984;SDS011;10651;47.552;7.606;2023-03-05T14:53:08;20.10;;;10.55;;
20984;SDS011;10651;47.552;7.606;2023-03-05T14:55:41;19.42;;;10.77;;
20984;SDS011;10651;47.552;7.606;2023-03-05T14:58:14;17.25;;;11.10;;
20984;SDS011;10651;47.552;7.606;2023-03-05T15:00:43;21.80;;;12.00;;
20984;SDS011;10651;47.552;7.606;2023-03-05T15:03:10;18.40;;;10.80;;
20984;SDS011;10651;47.552;7.606;2023-03-05T15:05:36;22.52;;;10.93;;
20984;SDS011;10651;47.552;7.606;2023-03-05T15:08:03;18.83;;;10.40;;
20984;SDS011;10651;47.552;7.606;2023-03-05T15:10:29;19.48;;;10.98;;
20984;SDS011;10651;47.552;7.606;2023-03-05T15:12:55;20.15;;;10.73;;
20984;SDS011;10651;47.552;7.606;2023-03-05T15:15:21;16.13;;;10.48;;
20984;SDS011;10651;47.552;7.606;2023-03-05T15:17:47;17.13;;;9.95;;
20984;SDS011;10651;47.552;7.606;2023-03-05T15:20:27;16.88;;;10.52;;
20984;SDS011;10651;47.552;7.606;2023-03-05T15:22:53;20.45;;;10.23;;
20984;SDS011;10651;47.552;7.606;2023-03-05T15:25:19;14.60;;;8.98;;
20984;SDS011;10651;47.552;7.606;2023-03-05T15:27:46;14.65;;;8.98;;
20984;SDS011;10651;47.552;7.606;2023-03-05T15:30:17;13.75;;;9.02;;
20984;SDS011;10651;47.552;7.606;2023-03-05T15:32:49;12.95;;;9.00;;
20984;SDS011;10651;47.552;7.606;2023-03-05T15:35:19;13.40;;;8.48;;
20984;SDS011;10651;47.552;7.606;2023-03-05T15:37:46;15.18;;;8.98;;
20984;SDS011;10651;47.552;7.606;2023-03-05T15:40:12;15.45;;;9.10;;
20984;SDS011;10651;47.552;7.606;2023-03-05T15:42:38;15.85;;;9.02;;
20984;SDS011;10651;47.552;7.606;2023-03-05T15:45:04;16.52;;;9.15;;
20984;SDS011;10651;47.552;7.606;2023-03-05T15:47:30;13.43;;;8.93;;
20984;SDS011;10651;47.552;7.606;2023-03-05T15:49:56;15.52;;;8.85;;
20984;SDS011;10651;47.552;7.606;2023-03-05T15:52:22;14.23;;;8.32;;
20984;SDS011;10651;47.552;7.606;2023-03-05T15:54:48;17.45;;;9.45;;
20984;SDS011;10651;47.552;7.606;2023-03-05T15:57:13;14.02;;;8.82;;
20984;SDS011;10651;47.552;7.606;2023-03-05T15:59:39;17.13;;;8.57;;
20984;SDS011;10651;47.552;7.606;2023-03-05T16:02:05;16.90;;;9.02;;
20984;SDS011;10651;47.552;7.606;2023-03-05T16:04:31;16.10;;;9.38;;
20984;SDS011;10651;47.552;7.606;2023-03-05T16:06:57;13.60;;;8.98;;
20984;SDS011;10651;47.552;7.606;2023-03-05T16:09:28;15.90;;;8.80;;
20984;SDS011;10651;47.552;7.606;2023-03-05T16:11:56;16.15;;;8.32;;
20984;SDS011;10651;47.552;7.606;2023-03-05T16:14:22;18.23;;;8.27;;
20984;SDS011;10651;47.552;7.606;2023-03-05T16:16:50;16.25;;;9.43;;
20984;SDS011;10651;47.552;7.606;2023-03-05T16:19:18;20.48;;;9.82;;
20984;SDS011;10651;47.552;7.606;2023-03-05T16:21:45;19.50;;;9.98;;
20984;SDS011;10651;47.552;7.606;2023-03-05T16:24:11;13.35;;;9.30;;
20984;SDS011;10651;47.552;7.606;2023-03-05T16:26:38;17.50;;;9.85;;
20984;SDS011;10651;47.552;7.606;2023-03-05T16:29:04;16.63;;;9.52;;
20984;SDS011;10651;47.552;7.606;2023-03-05T16:31:31;14.25;;;8.77;;
20984;SDS011;10651;47.552;7.606;2023-03-05T16:33:58;16.65;;;9.15;;
20984;SDS011;10651;47.552;7.606;2023-03-05T16:36:26;17.30;;;8.65;;
20984;SDS011;10651;47.552;7.606;2023-03-05T16:38:55;13.25;;;8.93;;
20984;SDS011;10651;47.552;7.606;2023-03-05T16:41:24;16.13;;;10.15;;
20984;SDS011;10651;47.552;7.606;2023-03-05T16:43:51;13.02;;;8.60;;
20984;SDS011;10651;47.552;7.606;2023-03-05T16:46:20;15.85;;;9.25;;
20984;SDS011;10651;47.552;7.606;2023-03-05T16:48:46;12.70;;;9.02;;
20984;SDS011;10651;47.552;7.606;2023-03-05T16:51:12;14.20;;;8.85;;
20984;SDS011;10651;47.552;7.606;2023-03-05T16:53:38;16.27;;;9.82;;
20984;SDS011;10651;47.552;7.606;2023-03-05T16:56:05;15.40;;;9.10;;
20984;SDS011;10651;47.552;7.606;2023-03-05T16:58:32;14.93;;;9.65;;
20984;SDS011;10651;47.552;7.606;2023-03-05T17:00:59;16.30;;;8.88;;
20984;SDS011;10651;47.552;7.606;2023-03-05T17:03:25;16.60;;;9.48;;
20984;SDS011;10651;47.552;7.606;2023-03-05T17:05:52;17.15;;;9.45;;
20984;SDS011;10651;47.552;7.606;2023-03-05T17:08:18;12.32;;;8.25;;
20984;SDS011;10651;47.552;7.606;2023-03-05T17:10:45;12.80;;;9.27;;
20984;SDS011;10651;47.552;7.606;2023-03-05T17:13:11;15.93;;;9.32;;
20984;SDS011;10651;47.552;7.606;2023-03-05T17:15:36;14.27;;;8.88;;
20984;SDS011;10651;47.552;7.606;2023-03-05T17:18:02;18.45;;;10.25;;
20984;SDS011;10651;47.552;7.606;2023-03-05T17:20:29;13.95;;;8.57;;
20984;SDS011;10651;47.552;7.606;2023-03-05T17:22:55;15.15;;;9.52;;
20984;SDS011;10651;47.552;7.606;2023-03-05T17:25:22;14.50;;;9.40;;
20984;SDS011;10651;47.552;7.606;2023-03-05T17:27:48;15.00;;;9.23;;
20984;SDS011;10651;47.552;7.606;2023-03-05T17:30:15;14.25;;;9.18;;
20984;SDS011;10651;47.552;7.606;2023-03-05T17:32:41;15.20;;;9.35;;
20984;SDS011;10651;47.552;7.606;2023-03-05T17:35:12;15.90;;;9.77;;
20984;SDS011;10651;47.552;7.606;2023-03-05T17:37:44;15.45;;;9.55;;
20984;SDS011;10651;47.552;7.606;2023-03-05T17:40:13;18.45;;;10.80;;
20984;SDS011;10651;47.552;7.606;2023-03-05T17:42:39;15.45;;;9.27;;
20984;SDS011;10651;47.552;7.606;2023-03-05T17:45:05;18.02;;;9.75;;
20984;SDS011;10651;47.552;7.606;2023-03-05T17:47:32;14.65;;;10.13;;
20984;SDS011;10651;47.552;7.606;2023-03-05T17:49:59;21.70;;;11.48;;
20984;SDS011;10651;47.552;7.606;2023-03-05T17:52:25;17.73;;;10.85;;
20984;SDS011;10651;47.552;7.606;2023-03-05T17:54:50;16.50;;;10.50;;
20984;SDS011;10651;47.552;7.606;2023-03-05T17:57:17;20.60;;;13.55;;
20984;SDS011;10651;47.552;7.606;2023-03-05T17:59:44;17.60;;;11.18;;
20984;SDS011;10651;47.552;7.606;2023-03-05T18:02:10;16.92;;;10.43;;
20984;SDS011;10651;47.552;7.606;2023-03-05T18:04:36;19.33;;;10.60;;
20984;SDS011;10651;47.552;7.606;2023-03-05T18:07:01;16.20;;;10.98;;
20984;SDS011;10651;47.552;7.606;2023-03-05T18:09:28;18.30;;;10.95;;
20984;SDS011;10651;47.552;7.606;2023-03-05T18:11:54;19.38;;;11.27;;
20984;SDS011;10651;47.552;7.606;2023-03-05T18:14:19;18.70;;;11.27;;
20984;SDS011;10651;47.552;7.606;2023-03-05T18:16:45;19.60;;;11.00;;
20984;SDS011;10651;47.552;7.606;2023-03-05T18:19:11;17.15;;;10.98;;
20984;SDS011;10651;47.552;7.606;2023-03-05T18:21:38;21.27;;;10.68;;
20984;SDS011;10651;47.552;7.606;2023-03-05T18:24:04;19.67;;;11.00;;
20984;SDS011;10651;47.552;7.606;2023-03-05T18:26:30;18.25;;;10.90;;
20984;SDS011;10651;47.552;7.606;2023-03-05T18:28:56;23.43;;;11.20;;
20984;SDS011;10651;47.552;7.606;2023-03-05T18:31:21;19.38;;;9.95;;
20984;SDS011;10651;47.552;7.606;2023-03-05T18:33:47;17.83;;;10.27;;
20984;SDS011;10651;47.552;7.606;2023-03-05T18:36:14;16.17;;;10.00;;
20984;SDS011;10651;47.552;7.606;2023-03-05T18:38:41;18.48;;;11.13;;
20984;SDS011;10651;47.552;7.606;2023-03-05T18:41:07;20.58;;;11.95;;
20984;SDS011;10651;47.552;7.606;2023-03-05T18:43:33;18.70;;;11.07;;
20984;SDS011;10651;47.552;7.606;2023-03-05T18:45:59;16.00;;;10.65;;
20984;SDS011;10651;47.552;7.606;2023-03-05T18:48:28;21.02;;;12.55;;
20984;SDS011;10651;47.552;7.606;2023-03-05T18:50:55;22.02;;;12.68;;
20984;SDS011;10651;47.552;7.606;2023-03-05T18:53:21;24.23;;;12.82;;
20984;SDS011;10651;47.552;7.606;2023-03-05T18:55:47;21.23;;;13.38;;
20984;SDS011;10651;47.552;7.606;2023-03-05T18:58:15;22.27;;;12.77;;
20984;SDS011;10651;47.552;7.606;2023-03-05T19:00:41;20.38;;;11.90;;
20984;SDS011;10651;47.552;7.606;2023-03-05T19:03:09;19.75;;;13.20;;
20984;SDS011;10651;47.552;7.606;2023-03-05T19:05:36;19.83;;;12.73;;
20984;SDS011;10651;47.552;7.606;2023-03-05T19:08:02;22.42;;;13.32;;
20984;SDS011;10651;47.552;7.606;2023-03-05T19:10:30;23.33;;;12.73;;
20984;SDS011;10651;47.552;7.606;2023-03-05T19:16:22;22.17;;;13.50;;
20984;SDS011;10651;47.552;7.606;2023-03-05T19:21:41;20.25;;;12.43;;
20984;SDS011;10651;47.552;7.606;2023-03-05T19:24:07;20.92;;;13.30;;
20984;SDS011;10651;47.552;7.606;2023-03-05T19:26:33;23.58;;;12.35;;
20984;SDS011;10651;47.552;7.606;2023-03-05T19:28:59;22.27;;;12.18;;
20984;SDS011;10651;47.552;7.606;2023-03-05T19:31:26;19.85;;;13.40;;
20984;SDS011;10651;47.552;7.606;2023-03-05T19:33:54;25.75;;;12.77;;
20984;SDS011;10651;47.552;7.606;2023-03-05T19:36:20;21.88;;;13.05;;
20984;SDS011;10651;47.552;7.606;2023-03-05T19:38:46;22.25;;;12.98;;
20984;SDS011;10651;47.552;7.606;2023-03-05T19:41:11;24.95;;;13.75;;
20984;SDS011;10651;47.552;7.606;2023-03-05T19:43:38;19.95;;;13.95;;
20984;SDS011;10651;47.552;7.606;2023-03-05T19:46:05;23.60;;;13.85;;
20984;SDS011;10651;47.552;7.606;2023-03-05T19:48:32;20.95;;;13.93;;
20984;SDS011;10651;47.552;7.606;2023-03-05T19:50:59;22.92;;;14.13;;
20984;SDS011;10651;47.552;7.606;2023-03-05T19:53:27;20.50;;;12.60;;
20984;SDS011;10651;47.552;7.606;2023-03-05T19:55:53;31.67;;;14.30;;
20984;SDS011;10651;47.552;7.606;2023-03-05T19:58:19;25.67;;;14.93;;
20984;SDS011;10651;47.552;7.606;2023-03-05T20:00:45;27.45;;;14.63;;
20984;SDS011;10651;47.552;7.606;2023-03-05T20:03:11;33.97;;;19.60;;
20984;SDS011;10651;47.552;7.606;2023-03-05T20:05:36;29.92;;;16.58;;
20984;SDS011;10651;47.552;7.606;2023-03-05T20:08:06;24.00;;;14.20;;
20984;SDS011;10651;47.552;7.606;2023-03-05T20:10:31;24.55;;;14.32;;
20984;SDS011;10651;47.552;7.606;2023-03-05T20:12:57;26.23;;;14.57;;
20984;SDS011;10651;47.552;7.606;2023-03-05T20:15:23;28.88;;;14.55;;
20984;SDS011;10651;47.552;7.606;2023-03-05T20:17:53;26.30;;;15.00;;
20984;SDS011;10651;47.552;7.606;2023-03-05T20:20:20;26.02;;;15.82;;
20984;SDS011;10651;47.552;7.606;2023-03-05T20:22:49;27.20;;;16.20;;
20984;SDS011;10651;47.552;7.606;2023-03-05T20:25:18;32.35;;;16.83;;
20984;SDS011;10651;47.552;7.606;2023-03-05T20:27:48;27.27;;;17.27;;
20984;SDS011;10651;47.552;7.606;2023-03-05T20:30:18;28.17;;;15.95;;
20984;SDS011;10651;47.552;7.606;2023-03-05T20:32:44;28.45;;;15.23;;
20984;SDS011;10651;47.552;7.606;2023-03-05T20:35:14;29.95;;;15.38;;
20984;SDS011;10651;47.552;7.606;2023-03-05T20:40:49;25.52;;;15.60;;
20984;SDS011;10651;47.552;7.606;2023-03-05T20:43:19;26.33;;;14.82;;
20984;SDS011;10651;47.552;7.606;2023-03-05T20:45:46;24.60;;;15.02;;
20984;SDS011;10651;47.552;7.606;2023-03-05T20:48:12;24.25;;;14.70;;
20984;SDS011;10651;47.552;7.606;2023-03-05T20:50:38;20.55;;;13.80;;
20984;SDS011;10651;47.552;7.606;2023-03-05T20:53:05;23.08;;;14.18;;
20984;SDS011;10651;47.552;7.606;2023-03-05T20:55:31;21.83;;;13.57;;
20984;SDS011;10651;47.552;7.606;2023-03-05T20:57:57;20.42;;;13.55;;
20984;SDS011;10651;47.552;7.606;2023-03-05T21:00:23;21.55;;;14.02;;
20984;SDS011;10651;47.552;7.606;2023-03-05T21:02:50;24.52;;;14.82;;
20984;SDS011;10651;47.552;7.606;2023-03-05T21:05:18;21.83;;;14.15;;
20984;SDS011;10651;47.552;7.606;2023-03-05T21:07:46;30.42;;;15.05;;
20984;SDS011;10651;47.552;7.606;2023-03-05T21:10:12;26.30;;;14.55;;
20984;SDS011;10651;47.552;7.606;2023-03-05T21:12:45;23.63;;;14.73;;
20984;SDS011;10651;47.552;7.606;2023-03-05T21:15:12;26.92;;;15.98;;
20984;SDS011;10651;47.552;7.606;2023-03-05T21:17:41;23.33;;;15.25;;
20984;SDS011;10651;47.552;7.606;2023-03-05T21:20:07;23.45;;;14.48;;
20984;SDS011;10651;47.552;7.606;2023-03-05T21:22:35;23.10;;;14.18;;
20984;SDS011;10651;47.552;7.606;2023-03-05T21:25:11;23.30;;;14.23;;
20984;SDS011;10651;47.552;7.606;2023-03-05T21:27:50;22.67;;;15.07;;
20984;SDS011;10651;47.552;7.606;2023-03-05T21:30:31;20.65;;;14.07;;
20984;SDS011;10651;47.552;7.606;2023-03-05T21:33:00;25.77;;;14.77;;
20984;SDS011;10651;47.552;7.606;2023-03-05T21:35:28;26.30;;;15.07;;
20984;SDS011;10651;47.552;7.606;2023-03-05T21:37:56;24.25;;;14.77;;
20984;SDS011;10651;47.552;7.606;2023-03-05T21:40:23;26.88;;;15.60;;
20984;SDS011;10651;47.552;7.606;2023-03-05T21:42:49;22.17;;;14.20;;
20984;SDS011;10651;47.552;7.606;2023-03-05T21:45:16;23.48;;;14.95;;
20984;SDS011;10651;47.552;7.606;2023-03-05T21:47:43;24.05;;;15.40;;
20984;SDS011;10651;47.552;7.606;2023-03-05T21:50:10;26.60;;;14.65;;
20984;SDS011;10651;47.552;7.606;2023-03-05T21:52:37;23.42;;;14.73;;
20984;SDS011;10651;47.552;7.606;2023-03-05T21:55:03;25.13;;;15.48;;
20984;SDS011;10651;47.552;7.606;2023-03-05T21:57:29;26.55;;;15.75;;
20984;SDS011;10651;47.552;7.606;2023-03-05T21:59:56;26.25;;;14.27;;
20984;SDS011;10651;47.552;7.606;2023-03-05T22:02:22;22.48;;;13.30;;
20984;SDS011;10651;47.552;7.606;2023-03-05T22:04:48;23.98;;;13.45;;
20984;SDS011;10651;47.552;7.606;2023-03-05T22:07:14;23.75;;;14.25;;
20984;SDS011;10651;47.552;7.606;2023-03-05T22:09:41;21.13;;;13.98;;
20984;SDS011;10651;47.552;7.606;2023-03-05T22:15:26;21.20;;;12.80;;
20984;SDS011;10651;47.552;7.606;2023-03-05T22:17:52;21.55;;;13.57;;
20984;SDS011;10651;47.552;7.606;2023-03-05T22:20:17;22.63;;;13.93;;
20984;SDS011;10651;47.552;7.606;2023-03-05T22:22:43;22.35;;;13.40;;
20984;SDS011;10651;47.552;7.606;2023-03-05T22:25:10;23.40;;;14.90;;
20984;SDS011;10651;47.552;7.606;2023-03-05T22:27:37;23.20;;;14.00;;
20984;SDS011;10651;47.552;7.606;2023-03-05T22:30:03;19.40;;;13.07;;
20984;SDS011;10651;47.552;7.606;2023-03-05T22:32:33;19.42;;;12.70;;
20984;SDS011;10651;47.552;7.606;2023-03-05T22:34:59;25.23;;;14.15;;
20984;SDS011;10651;47.552;7.606;2023-03-05T22:37:26;23.58;;;13.52;;
20984;SDS011;10651;47.552;7.606;2023-03-05T22:39:54;21.58;;;12.43;;
20984;SDS011;10651;47.552;7.606;2023-03-05T22:42:20;22.00;;;14.45;;